Time;durP1;ratioP1;P1;durP2;ratioP2;P2;SDS_P1;SDS_P2;PMS_P1;PMS_P2;Temp;Humidity;BMP_temperature;BMP_pressure;BME280_temperature;BME280_humidity;BME280_pressure;Samples;Min_cycle;Max_cycle;Signal;HPM_P1;HPM_P2
2021/07/25 00:00:43;;;;;;;10.45;5.00;;;;;;;17.29;52.15;100054.06;5052355;28;20032;-51
2021/07/25 00:03:10;;;;;;;7.78;4.55;;;;;;;17.45;52.03;100077.63;5048436;28;20030;-54
2021/07/25 00:05:36;;;;;;;12.02;4.88;;;;;;;17.46;51.95;100079.31;5032481;28;20026;-51
2021/07/25 00:08:02;;;;;;;10.15;4.78;;;;;;;17.49;51.98;100079.00;5032759;28;20040;-47
2021/07/25 00:10:29;;;;;;;10.75;4.95;;;;;;;17.50;51.83;100070.72;5032370;28;20052;-47
2021/07/25 00:12:54;;;;;;;9.65;4.97;;;;;;;17.53;51.69;100076.81;5032228;28;20422;-50
2021/07/25 00:15:20;;;;;;;9.60;4.78;;;;;;;17.56;52.05;100090.84;5044159;28;20040;-51
2021/07/25 00:17:46;;;;;;;11.40;5.35;;;;;;;17.59;51.55;100087.81;5032439;28;20084;-52
2021/07/25 00:20:12;;;;;;;11.07;4.72;;;;;;;17.61;51.85;100080.41;5031100;28;20073;-52
2021/07/25 00:22:38;;;;;;;11.23;4.78;;;;;;;17.63;51.79;100086.50;5031828;28;20100;-49
2021/07/25 00:25:08;;;;;;;13.95;5.07;;;;;;;17.71;51.65;100082.13;5042001;28;20033;-50
2021/07/25 00:27:39;;;;;;;10.05;4.72;;;;;;;17.77;51.47;100092.28;5051079;28;20361;-50
2021/07/25 00:30:14;;;;;;;16.27;4.80;;;;;;;17.81;51.40;100092.81;5051693;28;20431;-49
2021/07/25 00:32:41;;;;;;;12.95;4.80;;;;;;;17.81;51.33;100085.53;5051657;28;20061;-54
2021/07/25 00:35:07;;;;;;;10.77;5.40;;;;;;;17.86;51.15;100099.44;5047650;28;20096;-51
2021/07/25 00:37:35;;;;;;;11.32;5.18;;;;;;;17.83;51.22;100080.78;5032124;28;20038;-50
2021/07/25 00:40:00;;;;;;;13.93;5.28;;;;;;;17.72;50.90;100057.56;5030578;28;20040;-52
2021/07/25 00:42:36;;;;;;;13.68;4.70;;;;;;;17.98;50.96;100086.44;5030215;28;20083;-48
2021/07/25 00:45:02;;;;;;;10.90;4.93;;;;;;;17.90;50.92;100086.41;5033273;28;20066;-54
2021/07/25 00:47:28;;;;;;;11.85;4.97;;;;;;;17.90;51.23;100087.25;5043000;28;20041;-48
2021/07/25 00:49:54;;;;;;;9.90;4.65;;;;;;;17.87;51.48;100074.06;5031438;28;20033;-53
2021/07/25 00:52:19;;;;;;;15.88;4.80;;;;;;;17.92;51.19;100079.81;5031205;28;20025;-50
2021/07/25 00:54:45;;;;;;;9.50;4.78;;;;;;;17.91;50.80;100082.69;5031559;28;20037;-50
2021/07/25 00:57:10;;;;;;;12.15;5.45;;;;;;;17.94;50.79;100085.91;5045606;28;20037;-52
2021/07/25 00:59:36;;;;;;;12.75;5.15;;;;;;;17.93;50.48;100086.06;5051209;28;20033;-50
2021/07/25 01:02:02;;;;;;;8.32;4.72;;;;;;;17.92;50.27;100087.09;5051216;28;20475;-52
2021/07/25 01:04:38;;;;;;;12.65;4.93;;;;;;;18.04;50.29;100099.34;5051102;28;20108;-58
2021/07/25 01:07:18;;;;;;;10.27;5.38;;;;;;;18.05;50.35;100098.34;5042600;28;20127;-49
2021/07/25 01:10:07;;;;;;;12.38;5.75;;;;;;;18.06;50.27;100085.63;5030941;28;20143;-56
2021/07/25 01:12:41;;;;;;;10.68;5.63;;;;;;;18.08;50.34;100100.69;5031316;28;20484;-51
2021/07/25 01:15:08;;;;;;;17.42;6.40;;;;;;;18.02;50.65;100093.25;5031568;28;20033;-48
2021/07/25 01:17:35;;;;;;;13.52;6.25;;;;;;;18.03;50.91;100088.66;5040396;28;20032;-48
2021/07/25 01:20:06;;;;;;;16.15;5.93;;;;;;;18.04;50.80;100096.63;5050960;28;20033;-54
2021/07/25 01:22:39;;;;;;;13.73;6.00;;;;;;;18.08;50.97;100097.13;5051430;28;20032;-53
2021/07/25 01:25:06;;;;;;;12.10;5.55;;;;;;;18.02;51.21;100100.50;5050875;28;20033;-50
2021/07/25 01:27:38;;;;;;;14.15;6.13;;;;;;;18.06;51.20;100101.88;5042680;28;20461;-50
2021/07/25 01:30:08;;;;;;;14.98;5.90;;;;;;;18.02;50.94;100101.38;5031317;28;20068;-48
2021/07/25 01:32:35;;;;;;;14.20;5.32;;;;;;;17.97;51.14;100097.44;5030867;28;20048;-53
2021/07/25 01:35:02;;;;;;;15.82;6.18;;;;;;;18.02;51.44;100100.50;5030786;28;20076;-51
2021/07/25 01:37:30;;;;;;;12.95;6.60;;;;;;;18.02;51.46;100098.66;5047376;28;20060;-51
2021/07/25 01:39:56;;;;;;;11.27;5.50;;;;;;;18.00;51.41;100097.97;5038140;28;20041;-49
2021/07/25 01:42:30;;;;;;;13.13;6.20;;;;;;;18.06;51.08;100091.91;5035879;28;20095;-53
2021/07/25 01:44:56;;;;;;;14.52;5.95;;;;;;;17.84;51.64;100071.66;5037831;28;20029;-50
2021/07/25 01:47:22;;;;;;;11.63;5.68;;;;;;;18.01;51.51;100098.78;5038071;28;20469;-49
2021/07/25 01:49:47;;;;;;;11.27;6.22;;;;;;;18.02;51.37;100106.78;5037359;28;20168;-49
2021/07/25 01:52:12;;;;;;;17.33;6.40;;;;;;;18.05;51.52;100097.47;5037687;28;20025;-49
2021/07/25 01:54:38;;;;;;;13.73;5.95;;;;;;;18.03;51.65;100096.78;5037978;28;20029;-49
2021/07/25 01:57:04;;;;;;;12.18;5.78;;;;;;;18.07;51.56;100106.28;5050301;28;20500;-51
2021/07/25 01:59:29;;;;;;;11.95;6.07;;;;;;;18.08;51.37;100107.97;5057176;28;20036;-50
2021/07/25 02:01:54;;;;;;;14.35;5.72;;;;;;;18.07;51.26;100104.44;5057510;28;20047;-51
2021/07/25 02:04:20;;;;;;;10.73;5.55;;;;;;;18.15;51.47;100117.16;5057290;28;20033;-47
2021/07/25 02:06:45;;;;;;;13.05;5.57;;;;;;;18.15;51.36;100103.59;5052098;28;20033;-51
2021/07/25 02:09:13;;;;;;;12.63;5.90;;;;;;;18.20;51.34;100109.38;5037363;28;20029;-51
2021/07/25 02:11:38;;;;;;;12.15;5.38;;;;;;;18.22;51.22;100117.34;5037811;28;20033;-51
2021/07/25 02:14:05;;;;;;;13.95;5.80;;;;;;;18.21;50.83;100113.75;5037227;28;20079;-51
2021/07/25 02:16:30;;;;;;;13.82;6.32;;;;;;;18.27;50.97;100116.81;5047912;28;20855;-50
2021/07/25 02:18:56;;;;;;;13.18;5.75;;;;;;;18.29;51.20;100120.19;5057007;28;20462;-51
2021/07/25 02:21:21;;;;;;;11.73;6.03;;;;;;;18.31;50.78;100116.31;5055565;28;20098;-49
2021/07/25 02:23:47;;;;;;;14.27;5.40;;;;;;;18.33;51.00;100116.16;5057209;28;20032;-50
2021/07/25 02:26:12;;;;;;;11.85;5.35;;;;;;;18.40;50.70;100117.19;5055255;28;20425;-50
2021/07/25 02:28:38;;;;;;;15.25;5.97;;;;;;;18.40;49.59;100119.03;5057329;28;20365;-52
2021/07/25 02:31:04;;;;;;;15.65;6.20;;;;;;;18.28;49.54;100088.69;5057606;28;20131;-49
2021/07/25 02:33:29;;;;;;;13.40;6.13;;;;;;;18.34;49.27;100102.44;5057306;28;20040;-53
2021/07/25 02:35:56;;;;;;;16.85;5.88;;;;;;;18.44;49.09;100121.25;5048023;28;20172;-51
2021/07/25 02:38:22;;;;;;;18.08;6.40;;;;;;;18.56;49.14;100142.59;5036915;28;20040;-48
2021/07/25 02:40:47;;;;;;;14.35;6.70;;;;;;;18.58;49.03;100137.88;5037228;28;20029;-54
2021/07/25 02:43:13;;;;;;;14.55;6.20;;;;;;;18.63;49.02;100146.34;5037102;28;20032;-51
2021/07/25 02:45:38;;;;;;;12.77;5.97;;;;;;;18.63;48.73;100139.03;5037844;28;20388;-50
2021/07/25 02:48:04;;;;;;;19.90;6.30;;;;;;;18.68;48.40;100143.09;5052326;28;20468;-51
2021/07/25 02:50:30;;;;;;;19.50;6.75;;;;;;;18.60;48.15;100122.28;5053989;28;20495;-54
2021/07/25 02:52:55;;;;;;;14.45;6.57;;;;;;;18.86;48.05;100151.94;5053663;28;20495;-49
2021/07/25 02:55:21;;;;;;;16.75;6.88;;;;;;;18.90;47.62;100153.28;5047546;28;20025;-51
2021/07/25 02:57:46;;;;;;;17.10;6.90;;;;;;;18.97;47.54;100148.03;5053217;28;20029;-55
2021/07/25 03:00:13;;;;;;;13.85;6.97;;;;;;;19.07;47.82;100154.16;5053667;28;20064;-52
2021/07/25 03:02:38;;;;;;;20.52;6.80;;;;;;;19.13;47.62;100158.03;5053477;28;20119;-49
2021/07/25 03:05:05;;;;;;;17.17;6.43;;;;;;;19.18;47.11;100158.38;5053399;28;20148;-53
2021/07/25 03:07:30;;;;;;;12.48;6.35;;;;;;;19.21;47.05;100154.47;5041508;28;20083;-52
2021/07/25 03:09:56;;;;;;;15.02;6.55;;;;;;;19.26;47.08;100151.25;5033444;28;20471;-54
2021/07/25 03:12:21;;;;;;;12.65;6.18;;;;;;;19.32;46.49;100159.56;5033142;28;20430;-54
2021/07/25 03:14:47;;;;;;;12.25;6.00;;;;;;;19.50;46.18;100161.19;5033056;28;20389;-49
2021/07/25 03:17:12;;;;;;;13.95;6.07;;;;;;;19.54;45.97;100139.97;5034762;28;20064;-52
2021/07/25 03:19:38;;;;;;;10.88;6.03;;;;;;;19.56;45.92;100130.63;5032893;28;20029;-52
2021/07/25 03:22:04;;;;;;;11.75;5.90;;;;;;;19.84;45.44;100153.75;5032976;28;20240;-50
2021/07/25 03:24:31;;;;;;;15.77;5.82;;;;;;;20.08;44.93;100174.59;5033068;28;20029;-52
2021/07/25 03:26:56;;;;;;;13.68;6.70;;;;;;;20.20;44.92;100162.25;5033615;28;20397;-54
2021/07/25 03:29:22;;;;;;;15.18;6.63;;;;;;;20.37;44.15;100162.19;5032569;28;20045;-52
2021/07/25 03:31:47;;;;;;;12.95;6.05;;;;;;;20.51;44.10;100157.81;5033152;28;20381;-54
2021/07/25 03:34:13;;;;;;;16.80;6.45;;;;;;;20.56;43.65;100157.28;5033027;28;20366;-53
2021/07/25 03:36:39;;;;;;;13.48;6.47;;;;;;;20.71;42.92;100170.94;5032726;28;20078;-49
2021/07/25 03:39:11;;;;;;;14.27;6.25;;;;;;;20.91;42.57;100176.75;5044081;28;20207;-50
2021/07/25 03:41:37;;;;;;;16.75;6.65;;;;;;;21.00;41.55;100175.69;5052897;28;20109;-57
2021/07/25 03:44:02;;;;;;;16.33;5.97;;;;;;;21.15;40.78;100166.69;5052645;28;20037;-49
2021/07/25 03:46:29;;;;;;;13.63;5.80;;;;;;;21.30;40.34;100170.28;5051367;28;20065;-54
2021/07/25 03:48:55;;;;;;;10.70;5.80;;;;;;;21.42;40.40;100161.63;5042160;28;20101;-53
2021/07/25 03:51:21;;;;;;;9.77;5.55;;;;;;;21.62;40.23;100170.94;5032266;28;20456;-53
2021/07/25 03:53:46;;;;;;;11.27;5.82;;;;;;;21.87;39.52;100170.66;5032415;28;20084;-52
2021/07/25 03:56:12;;;;;;;14.02;5.70;;;;;;;22.16;38.32;100174.38;5031428;28;20018;-52
2021/07/25 03:58:37;;;;;;;10.98;5.53;;;;;;;22.39;37.64;100173.38;5033599;28;20021;-50
2021/07/25 04:01:02;;;;;;;11.43;5.68;;;;;;;22.64;36.85;100173.03;5051032;28;20040;-51
2021/07/25 04:03:28;;;;;;;13.85;5.85;;;;;;;22.88;36.25;100170.94;5052236;28;20063;-50
2021/07/25 04:05:53;;;;;;;11.35;5.38;;;;;;;23.09;35.67;100168.19;5052203;28;20037;-54
2021/07/25 04:08:19;;;;;;;12.50;5.82;;;;;;;23.36;35.16;100167.56;5052551;28;20461;-53
2021/07/25 04:10:45;;;;;;;10.98;5.30;;;;;;;23.56;34.57;100173.16;5034213;28;20021;-50
2021/07/25 04:13:11;;;;;;;13.95;5.85;;;;;;;23.83;34.37;100176.03;5031792;28;20033;-53
2021/07/25 04:15:41;;;;;;;10.75;5.82;;;;;;;24.08;34.21;100186.47;5031989;28;20487;-53
2021/07/25 04:18:07;;;;;;;17.77;5.88;;;;;;;24.12;33.48;100179.56;5031056;28;20478;-54
2021/07/25 04:20:33;;;;;;;12.10;6.10;;;;;;;24.23;33.80;100189.91;5044506;28;20508;-50
2021/07/25 04:23:01;;;;;;;12.52;6.13;;;;;;;24.41;33.24;100174.81;5051524;28;20087;-51
2021/07/25 04:25:28;;;;;;;11.05;6.10;;;;;;;24.73;32.72;100183.28;5051973;28;20052;-50
2021/07/25 04:27:54;;;;;;;14.98;5.78;;;;;;;24.98;32.18;100184.59;5047251;28;20064;-55
2021/07/25 04:30:20;;;;;;;11.48;5.68;;;;;;;25.05;32.22;100188.16;5031609;28;20073;-51
2021/07/25 04:32:45;;;;;;;12.70;6.00;;;;;;;25.05;32.30;100186.25;5031467;28;20161;-50
2021/07/25 04:35:12;;;;;;;11.57;6.55;;;;;;;25.01;32.63;100185.00;5031670;28;20080;-51
2021/07/25 04:37:47;;;;;;;14.48;6.55;;;;;;;25.05;32.44;100179.97;5033194;28;20387;-49
2021/07/25 04:40:13;;;;;;;;;;;;;;;25.70;32.82;100190.22;5051191;28;20039;-54
2021/07/25 04:42:42;;;;;;;;;;;;;;;25.99;32.60;100195.38;5051063;28;19984;-52
2021/07/25 04:45:08;;;;;;;17.15;6.82;;;;;;;25.58;31.23;100187.31;5051635;28;19912;-55
2021/07/25 04:47:43;;;;;;;13.82;6.72;;;;;;;25.42;31.82;100196.78;5051542;28;20392;-53
2021/07/25 04:50:15;;;;;;;10.60;6.78;;;;;;;25.42;32.24;100201.41;5035463;28;20029;-48
2021/07/25 04:52:42;;;;;;;10.60;6.63;;;;;;;25.24;32.11;100211.13;5031108;28;20071;-51
2021/07/25 04:55:10;;;;;;;10.32;6.93;;;;;;;25.27;31.89;100210.69;5029959;28;20326;-52
2021/07/25 04:57:41;;;;;;;11.18;6.95;;;;;;;25.36;32.06;100203.09;5031307;28;20061;-50
2021/07/25 05:00:09;;;;;;;11.80;6.45;;;;;;;25.36;32.03;100200.38;5040225;28;20431;-51
2021/07/25 05:02:37;;;;;;;9.85;6.60;;;;;;;25.30;32.00;100210.28;5050941;28;20041;-55
2021/07/25 05:05:03;;;;;;;11.25;6.15;;;;;;;25.17;31.71;100200.16;5051072;28;20033;-53
2021/07/25 05:07:39;;;;;;;10.48;5.60;;;;;;;25.21;31.55;100217.03;5050781;28;20078;-51
2021/07/25 05:10:05;;;;;;;7.78;4.82;;;;;;;24.99;31.13;100219.97;5046207;28;20048;-52
2021/07/25 05:12:49;;;;;;;8.63;5.13;;;;;;;25.17;31.46;100218.50;5042499;28;20029;-53
2021/07/25 05:15:21;;;;;;;8.93;4.95;;;;;;;25.14;30.79;100216.19;5050735;28;20429;-53
2021/07/25 05:17:55;;;;;;;6.82;4.95;;;;;;;25.18;30.63;100188.16;5051071;28;20432;-48
2021/07/25 05:20:29;;;;;;;8.15;5.00;;;;;;;25.55;29.46;100206.91;5046812;28;20029;-60
2021/07/25 05:23:24;;;;;;;7.85;4.68;;;;;;;26.15;29.35;100210.50;5049491;28;20029;-51
2021/07/25 05:25:52;;;;;;;7.00;4.43;;;;;;;26.15;28.35;100207.78;5051308;28;20380;-55
2021/07/25 05:28:22;;;;;;;8.52;4.45;;;;;;;26.20;28.49;100206.09;5050106;28;20068;-53
2021/07/25 05:30:52;;;;;;;11.95;3.83;;;;;;;26.40;27.91;100191.44;5048101;28;20068;-53
2021/07/25 05:33:21;;;;;;;7.63;4.03;;;;;;;26.61;26.85;100209.47;5033384;28;20034;-52
2021/07/25 05:35:47;;;;;;;8.48;4.32;;;;;;;26.89;26.51;100210.16;5050416;28;20087;-51
2021/07/25 05:38:13;;;;;;;7.38;4.00;;;;;;;27.22;25.83;100206.28;5050587;28;20081;-52
2021/07/25 05:40:39;;;;;;;4.60;3.72;;;;;;;27.34;25.79;100204.50;5049117;28;20029;-54
2021/07/25 05:43:05;;;;;;;6.60;3.67;;;;;;;27.55;25.01;100201.56;5034644;28;20377;-53
2021/07/25 05:45:30;;;;;;;4.53;3.30;;;;;;;27.75;24.60;100202.19;5029568;28;20021;-55
2021/07/25 05:47:56;;;;;;;4.32;2.85;;;;;;;27.92;24.29;100201.59;5030631;28;20064;-49
2021/07/25 05:50:21;;;;;;;6.90;4.07;;;;;;;27.87;24.52;100183.03;5030833;28;20025;-50
2021/07/25 05:52:55;;;;;;;7.22;4.10;;;;;;;28.32;24.88;100216.78;5040959;28;20420;-53
2021/07/25 05:55:22;;;;;;;6.88;3.60;;;;;;;28.63;23.95;100212.13;5051030;28;20091;-50
2021/07/25 05:57:48;;;;;;;4.80;3.55;;;;;;;29.30;23.01;100211.06;5050404;28;20053;-55
2021/07/25 06:00:14;;;;;;;8.23;3.03;;;;;;;30.40;21.21;100206.84;5050197;28;20066;-54
2021/07/25 06:02:53;;;;;;;5.53;3.40;;;;;;;31.87;20.78;100218.13;5041025;28;20021;-53
2021/07/25 06:05:18;;;;;;;5.57;3.42;;;;;;;33.22;18.43;100209.28;5030651;28;20034;-54
2021/07/25 06:07:45;;;;;;;4.80;3.65;;;;;;;35.50;16.21;100214.69;5030452;28;20091;-53
2021/07/25 06:10:11;;;;;;;5.63;3.10;;;;;;;38.34;13.40;100208.84;5034501;28;20109;-54
2021/07/25 06:12:37;;;;;;;3.58;3.10;;;;;;;40.32;11.98;100192.97;5044370;28;20461;-54
2021/07/25 06:15:03;;;;;;;4.63;3.08;;;;;;;41.10;11.50;100207.09;5047253;28;20055;-51
2021/07/25 06:17:29;;;;;;;6.88;3.17;;;;;;;41.70;10.82;100208.56;5048603;28;20097;-52
2021/07/25 06:19:54;;;;;;;6.13;3.05;;;;;;;41.80;10.76;100212.22;5048876;28;20119;-53
2021/07/25 06:22:20;;;;;;;4.38;2.60;;;;;;;41.93;10.35;100211.28;5048612;28;20469;-52
2021/07/25 06:24:45;;;;;;;3.80;2.60;;;;;;;41.65;10.20;100211.53;5032842;28;20175;-51
2021/07/25 06:27:11;;;;;;;4.50;2.67;;;;;;;41.33;10.30;100221.94;5032497;28;20457;-53
2021/07/25 06:29:36;;;;;;;4.97;2.55;;;;;;;40.68;10.71;100224.94;5033664;28;20029;-55
2021/07/25 06:32:02;;;;;;;5.15;2.85;;;;;;;40.11;11.42;100222.56;5034518;28;20057;-51
2021/07/25 06:34:29;;;;;;;3.78;2.38;;;;;;;39.94;11.57;100223.22;5044891;28;20183;-54
2021/07/25 06:36:54;;;;;;;3.83;2.40;;;;;;;39.30;12.16;100219.09;5053792;28;20115;-54
2021/07/25 06:39:20;;;;;;;3.75;2.35;;;;;;;38.56;12.36;100221.44;5053376;28;20028;-54
2021/07/25 06:41:45;;;;;;;3.55;2.30;;;;;;;37.89;12.81;100209.16;5054032;28;20556;-53
2021/07/25 06:44:10;;;;;;;2.70;2.33;;;;;;;38.09;13.04;100221.22;5051759;28;20029;-57
2021/07/25 06:46:36;;;;;;;2.65;2.10;;;;;;;38.02;12.89;100212.38;5053448;28;20025;-56
2021/07/25 06:49:01;;;;;;;3.78;2.58;;;;;;;38.33;13.03;100211.94;5053793;28;20465;-55
2021/07/25 06:51:27;;;;;;;2.90;2.03;;;;;;;38.32;12.57;100221.47;5053272;28;20029;-53
2021/07/25 06:53:52;;;;;;;3.95;2.20;;;;;;;37.97;13.05;100224.44;5053837;28;20392;-54
2021/07/25 06:56:18;;;;;;;4.80;2.25;;;;;;;38.99;12.24;100228.88;5036983;28;20116;-60
2021/07/25 06:58:44;;;;;;;5.75;2.10;;;;;;;39.95;11.35;100222.09;5033545;28;20107;-57
2021/07/25 07:01:11;;;;;;;5.82;2.67;;;;;;;41.00;10.44;100220.25;5033484;28;20480;-55
2021/07/25 07:03:38;;;;;;;2.40;2.20;;;;;;;42.70;9.55;100236.22;5033398;28;20072;-56
2021/07/25 07:06:07;;;;;;;2.92;2.40;;;;;;;43.29;9.33;100242.47;5033193;28;20044;-54
2021/07/25 07:08:33;;;;;;;4.03;2.22;;;;;;;42.94;9.36;100234.91;5033337;28;20034;-59
2021/07/25 07:10:59;;;;;;;4.35;2.20;;;;;;;42.38;9.29;100238.31;5033013;28;20060;-58
2021/07/25 07:13:24;;;;;;;4.25;2.15;;;;;;;41.45;10.01;100229.75;5032267;28;20040;-60
2021/07/25 07:15:50;;;;;;;4.07;2.28;;;;;;;41.66;10.19;100232.88;5034575;28;20495;-59
2021/07/25 07:18:17;;;;;;;5.10;2.10;;;;;;;42.07;9.88;100238.44;5052427;28;20044;-58
2021/07/25 07:20:43;;;;;;;2.75;1.63;;;;;;;42.12;9.52;100236.31;5052862;28;20136;-57
2021/07/25 07:23:10;;;;;;;2.67;1.90;;;;;;;42.00;9.55;100239.72;5053057;28;20061;-58
2021/07/25 07:25:44;;;;;;;3.67;1.80;;;;;;;43.88;8.59;100227.59;5052787;28;20029;-57
2021/07/25 07:28:10;;;;;;;3.87;1.70;;;;;;;46.79;6.00;100223.50;5046963;28;20037;-58
2021/07/25 07:30:37;;;;;;;2.15;1.58;;;;;;;49.34;5.28;100242.31;5031394;28;20176;-61
2021/07/25 07:33:13;;;;;;;3.03;1.63;;;;;;;51.37;4.40;100239.34;5032517;28;20084;-60
2021/07/25 07:35:39;;;;;;;1.65;1.50;;;;;;;52.33;3.23;100231.03;5033483;28;20490;-57
2021/07/25 07:38:05;;;;;;;2.03;1.60;;;;;;;53.34;2.76;100236.19;5034595;28;20465;-59
2021/07/25 07:40:35;;;;;;;2.70;1.60;;;;;;;53.43;2.36;100230.91;5029797;28;20393;-59
2021/07/25 07:43:02;;;;;;;1.80;1.70;;;;;;;53.68;2.52;100238.63;5032415;28;20041;-60
2021/07/25 07:45:29;;;;;;;2.20;1.88;;;;;;;53.90;2.44;100239.44;5031030;28;20401;-59
2021/07/25 07:47:55;;;;;;;3.45;2.33;;;;;;;54.19;2.46;100236.50;5034562;28;20056;-59
2021/07/25 07:50:20;;;;;;;3.25;2.25;;;;;;;54.05;2.17;100228.78;5032802;28;20041;-59
2021/07/25 07:52:46;;;;;;;3.20;2.85;;;;;;;54.34;2.67;100231.53;5032001;28;20037;-60
2021/07/25 07:55:13;;;;;;;2.78;2.58;;;;;;;54.71;2.13;100234.22;5039468;28;20069;-59
2021/07/25 07:57:38;;;;;;;2.83;2.72;;;;;;;55.00;1.79;100211.13;5051541;28;20060;-59
2021/07/25 08:00:05;;;;;;;5.25;3.33;;;;;;;55.35;1.96;100226.44;5035744;28;20064;-60
2021/07/25 08:02:30;;;;;;;3.53;3.13;;;;;;;54.88;2.03;100221.03;5032143;28;20033;-56
2021/07/25 08:04:57;;;;;;;3.80;3.50;;;;;;;54.34;1.79;100217.19;5031354;28;20048;-59
2021/07/25 08:07:23;;;;;;;3.17;3.05;;;;;;;52.99;2.96;100214.91;5030702;28;20025;-59
2021/07/25 08:09:49;;;;;;;5.50;2.80;;;;;;;51.31;3.39;100210.38;5021995;28;20412;-58
2021/07/25 08:12:14;;;;;;;3.28;2.38;;;;;;;48.99;4.75;100219.38;5040463;28;20491;-59
2021/07/25 08:14:40;;;;;;;2.42;2.28;;;;;;;46.01;6.12;100202.59;5030456;28;20034;-60
2021/07/25 08:17:05;;;;;;;2.47;2.10;;;;;;;43.21;8.20;100207.50;5032182;28;20032;-58
2021/07/25 08:19:31;;;;;;;2.35;1.80;;;;;;;40.92;9.09;100192.94;5035762;28;20537;-57
2021/07/25 08:21:56;;;;;;;3.05;1.83;;;;;;;38.86;10.48;100173.69;5030609;28;20034;-58
2021/07/25 08:24:22;;;;;;;3.13;1.60;;;;;;;37.32;11.99;100218.13;5031491;28;20381;-58
2021/07/25 08:26:47;;;;;;;2.15;1.70;;;;;;;35.59;13.80;100206.63;5032286;28;20025;-58
2021/07/25 08:29:13;;;;;;;2.85;1.80;;;;;;;34.13;15.11;100210.41;5032899;28;20066;-59
2021/07/25 08:31:38;;;;;;;3.22;1.42;;;;;;;33.02;16.15;100204.41;5031103;28;20054;-56
2021/07/25 08:34:25;;;;;;;2.72;1.50;;;;;;;31.97;17.54;100219.34;5108258;27;20384;-55
2021/07/25 08:36:52;;;;;;;1.48;1.38;;;;;;;30.87;18.76;100216.00;5109084;28;20068;-61
2021/07/25 08:39:18;;;;;;;3.15;1.42;;;;;;;30.31;19.25;100219.34;5108395;28;20032;-58
2021/07/25 08:41:56;;;;;;;2.28;1.60;;;;;;;30.17;19.07;100233.47;5106880;28;20036;-60
2021/07/25 08:44:40;;;;;;;4.22;1.70;;;;;;;29.51;19.76;100204.13;5087490;28;20035;-61
2021/07/25 08:47:32;;;;;;;1.77;1.67;;;;;;;29.40;19.73;100231.69;5087373;28;20028;-58
2021/07/25 08:49:59;;;;;;;3.22;1.60;;;;;;;28.77;21.24;100227.38;5087349;28;20472;-56
2021/07/25 08:52:26;;;;;;;2.28;1.40;;;;;;;28.55;21.38;100229.81;5087865;28;20024;-59
2021/07/25 08:54:53;;;;;;;1.95;1.40;;;;;;;28.46;21.61;100239.47;5086399;28;20107;-56
2021/07/25 08:57:24;;;;;;;2.35;1.20;;;;;;;28.40;21.42;100241.25;5087687;28;20028;-58
2021/07/25 08:59:53;;;;;;;3.78;1.40;;;;;;;28.24;21.74;100236.41;5086234;28;20024;-56
2021/07/25 09:02:29;;;;;;;1.50;1.33;;;;;;;28.14;21.83;100232.22;5087750;28;20032;-56
2021/07/25 09:04:57;;;;;;;2.15;1.42;;;;;;;27.87;22.58;100240.78;5087673;28;20120;-58
2021/07/25 09:07:24;;;;;;;1.52;1.30;;;;;;;27.69;22.84;100246.28;5087537;28;20028;-59
2021/07/25 09:09:54;;;;;;;1.98;1.10;;;;;;;27.20;22.94;100200.19;5102981;28;20024;-59
2021/07/25 09:12:21;;;;;;;1.90;1.10;;;;;;;27.25;23.27;100249.84;5087622;28;20032;-58
2021/07/25 09:14:52;;;;;;;1.05;0.90;;;;;;;27.25;23.23;100251.72;5085829;28;20174;-60
2021/07/25 09:17:18;;;;;;;2.70;1.33;;;;;;;27.00;24.05;100256.13;5087874;28;20483;-54
2021/07/25 09:20:09;;;;;;;1.20;0.98;;;;;;;27.14;22.95;100258.78;5080258;28;20036;-55
2021/07/25 09:22:36;;;;;;;1.20;0.98;;;;;;;26.75;24.51;100234.94;5067377;28;20064;-54
2021/07/25 09:25:02;;;;;;;1.20;1.05;;;;;;;26.84;24.20;100251.16;5066228;28;20017;-57
2021/07/25 09:27:27;;;;;;;1.52;1.33;;;;;;;26.90;24.40;100247.56;5067004;28;20086;-58
2021/07/25 09:29:53;;;;;;;3.42;1.40;;;;;;;26.90;24.78;100244.81;5071637;28;20035;-55
2021/07/25 09:32:19;;;;;;;1.80;1.13;;;;;;;27.03;24.67;100252.13;5085607;28;20056;-55
2021/07/25 09:34:47;;;;;;;1.45;1.35;;;;;;;27.20;24.26;100258.75;5087167;28;20055;-56
2021/07/25 09:37:21;;;;;;;2.42;1.23;;;;;;;27.61;23.59;100262.00;5087139;28;20036;-59
2021/07/25 09:39:51;;;;;;;1.58;1.15;;;;;;;27.85;23.54;100256.69;5083815;28;20021;-56
2021/07/25 09:42:26;;;;;;;2.65;1.20;;;;;;;28.31;22.91;100248.16;5068464;28;20040;-58
2021/07/25 09:44:53;;;;;;;;;;;;;;;29.02;21.43;100247.59;5059276;28;20389;-59
2021/07/25 09:47:37;;;;;;;1.67;1.20;;;;;;;29.40;21.44;100248.22;5061827;28;19920;-59
2021/07/25 09:50:07;;;;;;;2.42;1.30;;;;;;;29.64;21.12;100246.34;5073406;28;20036;-56
2021/07/25 09:52:35;;;;;;;1.30;1.20;;;;;;;29.75;20.86;100253.78;5073999;28;20029;-58
2021/07/25 09:55:03;;;;;;;3.05;1.30;;;;;;;29.79;20.84;100251.38;5074013;28;20036;-58
2021/07/25 09:57:31;;;;;;;1.10;1.00;;;;;;;29.72;19.83;100247.91;5069299;28;20024;-59
2021/07/25 10:00:08;;;;;;;3.53;1.08;;;;;;;29.67;20.36;100247.81;5057410;28;20028;-59
2021/07/25 10:02:39;;;;;;;1.83;1.08;;;;;;;29.70;20.36;100252.84;5073115;28;20035;-58
2021/07/25 10:05:09;;;;;;;2.35;1.13;;;;;;;29.47;20.80;100257.28;5074042;28;20028;-59
2021/07/25 10:07:35;;;;;;;1.30;1.10;;;;;;;28.91;21.62;100247.34;5072006;28;20025;-56
2021/07/25 10:10:02;;;;;;;2.25;1.30;;;;;;;28.21;22.26;100254.19;5062073;28;20033;-60
2021/07/25 10:12:32;;;;;;;2.63;1.00;;;;;;;27.64;23.25;100267.06;5073196;28;20028;-58
2021/07/25 10:15:02;;;;;;;6.63;1.30;;;;;;;27.12;23.38;100239.78;5073312;28;20245;-58
2021/07/25 10:17:32;;;;;;;7.18;1.40;;;;;;;27.17;23.71;100269.34;5071410;28;20211;-59
2021/07/25 10:19:59;;;;;;;3.30;1.20;;;;;;;26.96;24.58;100267.81;5057711;28;20033;-58
2021/07/25 10:22:28;;;;;;;4.07;1.88;;;;;;;26.74;24.73;100252.47;5051846;28;20061;-57
2021/07/25 10:24:58;;;;;;;2.17;1.27;;;;;;;26.69;24.92;100265.22;5053116;28;20107;-58
2021/07/25 10:27:24;;;;;;;3.78;2.13;;;;;;;26.63;25.28;100272.41;5052507;28;20111;-56
2021/07/25 10:29:52;;;;;;;1.70;1.35;;;;;;;26.57;25.39;100267.81;5061645;28;20024;-58
2021/07/25 10:32:19;;;;;;;1.75;1.35;;;;;;;26.53;25.62;100269.31;5072991;28;20126;-57
2021/07/25 10:34:46;;;;;;;2.65;1.80;;;;;;;26.36;25.90;100264.31;5072418;28;20040;-55
2021/07/25 10:37:12;;;;;;;1.55;1.15;;;;;;;26.10;26.23;100252.34;5072249;28;20535;-58
2021/07/25 10:39:43;;;;;;;3.45;1.42;;;;;;;26.18;26.49;100260.34;5068191;28;20131;-55
2021/07/25 10:42:13;;;;;;;2.78;1.67;;;;;;;26.29;26.20;100277.22;5070913;28;20028;-55
2021/07/25 10:44:42;;;;;;;2.92;1.48;;;;;;;26.42;26.47;100277.16;5072366;28;20032;-60
2021/07/25 10:47:17;;;;;;;3.67;1.48;;;;;;;26.62;25.38;100278.97;5071526;28;20035;-57
2021/07/25 10:49:43;;;;;;;3.43;1.07;;;;;;;26.69;25.72;100282.50;5061691;28;20506;-57
2021/07/25 10:52:08;;;;;;;1.85;1.15;;;;;;;26.79;25.28;100274.66;5072586;28;20024;-58
2021/07/25 10:54:44;;;;;;;2.55;1.02;;;;;;;26.86;25.19;100280.13;5066023;28;20031;-56
2021/07/25 10:57:12;;;;;;;1.80;1.40;;;;;;;26.97;25.07;100275.81;5051812;28;20059;-58
2021/07/25 10:59:45;;;;;;;5.93;1.20;;;;;;;27.14;24.68;100280.78;5052562;28;20037;-60
2021/07/25 11:02:12;;;;;;;2.15;1.23;;;;;;;27.12;24.51;100280.16;5056684;28;20049;-54
2021/07/25 11:05:05;;;;;;;1.27;1.00;;;;;;;27.47;24.16;100283.25;5052600;28;20033;-57
2021/07/25 11:07:30;;;;;;;2.03;1.13;;;;;;;27.31;24.83;100272.81;5061174;28;20040;-54
2021/07/25 11:10:12;;;;;;;5.43;1.60;;;;;;;27.24;25.02;100272.88;5071074;28;20112;-59
2021/07/25 11:12:52;;;;;;;2.30;1.25;;;;;;;27.41;24.89;100277.81;5059201;28;20037;-57
2021/07/25 11:15:33;;;;;;;2.85;1.30;;;;;;;27.49;24.82;100274.78;5066297;28;20042;-59
2021/07/25 11:17:59;;;;;;;2.92;1.10;;;;;;;27.41;25.03;100270.44;5065115;28;20040;-57
2021/07/25 11:20:30;;;;;;;3.85;1.60;;;;;;;27.56;24.66;100275.59;5051619;28;20025;-58
2021/07/25 11:22:56;;;;;;;1.90;1.20;;;;;;;27.41;24.66;100272.31;5055365;28;20098;-59
2021/07/25 11:25:35;;;;;;;2.50;1.30;;;;;;;27.44;24.24;100280.13;5051588;28;20036;-57
2021/07/25 11:28:06;;;;;;;2.42;1.50;;;;;;;27.42;25.21;100271.25;5051563;28;20528;-56